sensor_id;sensor_type;location;lat;lon;timestamp;temperature;humidity
25985;DHT22;40000;53.848;10.658;2022-10-17T00:02:10;9.60;99.90
25985;DHT22;40000;53.848;10.658;2022-10-17T00:07:11;9.70;99.90
25985;DHT22;40000;53.848;10.658;2022-10-17T00:12:11;9.70;99.90
25985;DHT22;40000;53.848;10.658;2022-10-17T00:17:12;9.80;99.90
25985;DHT22;40000;53.848;10.658;2022-10-17T00:22:14;9.90;99.90
25985;DHT22;40000;53.848;10.658;2022-10-17T00:27:15;10.00;99.90
25985;DHT22;40000;53.848;10.658;2022-10-17T00:32:16;10.10;99.90
25985;DHT22;40000;53.848;10.658;2022-10-17T00:37:17;10.30;99.90
25985;DHT22;40000;53.848;10.658;2022-10-17T00:42:18;10.30;99.90
25985;DHT22;40000;53.848;10.658;2022-10-17T00:47:19;10.40;99.90
25985;DHT22;40000;53.848;10.658;2022-10-17T00:52:24;10.40;99.90
25985;DHT22;40000;53.848;10.658;2022-10-17T00:57:27;10.40;99.90
25985;DHT22;40000;53.848;10.658;2022-10-17T01:02:30;10.50;99.90
25985;DHT22;40000;53.848;10.658;2022-10-17T01:07:31;10.50;99.90
25985;DHT22;40000;53.848;10.658;2022-10-17T01:23:53;10.60;99.90
25985;DHT22;40000;53.848;10.658;2022-10-17T01:40:34;10.60;99.90
25985;DHT22;40000;53.848;10.658;2022-10-17T01:45:56;10.70;99.90
25985;DHT22;40000;53.848;10.658;2022-10-17T01:51:16;10.80;99.90
25985;DHT22;40000;53.848;10.658;2022-10-17T01:56:24;10.80;99.90
25985;DHT22;40000;53.848;10.658;2022-10-17T02:01:27;10.80;99.90
25985;DHT22;40000;53.848;10.658;2022-10-17T02:06:33;10.90;99.90
25985;DHT22;40000;53.848;10.658;2022-10-17T02:11:37;11.00;99.90
25985;DHT22;40000;53.848;10.658;2022-10-17T02:16:46;11.10;99.90
25985;DHT22;40000;53.848;10.658;2022-10-17T02:33:00;11.10;99.90
25985;DHT22;40000;53.848;10.658;2022-10-17T02:38:05;11.20;99.90
25985;DHT22;40000;53.848;10.658;2022-10-17T02:43:08;11.20;99.90
25985;DHT22;40000;53.848;10.658;2022-10-17T02:58:51;11.30;99.90
25985;DHT22;40000;53.848;10.658;2022-10-17T03:04:12;11.40;99.90
25985;DHT22;40000;53.848;10.658;2022-10-17T03:09:14;11.40;99.90
25985;DHT22;40000;53.848;10.658;2022-10-17T03:14:15;11.50;99.90
25985;DHT22;40000;53.848;10.658;2022-10-17T03:19:16;11.50;99.90
25985;DHT22;40000;53.848;10.658;2022-10-17T03:24:16;11.60;99.90
25985;DHT22;40000;53.848;10.658;2022-10-17T03:29:17;11.70;99.90
25985;DHT22;40000;53.848;10.658;2022-10-17T03:34:18;11.80;99.90
25985;DHT22;40000;53.848;10.658;2022-10-17T03:39:19;11.80;99.90
25985;DHT22;40000;53.848;10.658;2022-10-17T03:44:19;11.90;99.90
25985;DHT22;40000;53.848;10.658;2022-10-17T03:49:20;11.90;99.90
25985;DHT22;40000;53.848;10.658;2022-10-17T03:54:21;12.00;99.90
25985;DHT22;40000;53.848;10.658;2022-10-17T03:59:21;12.00;99.90
25985;DHT22;40000;53.848;10.658;2022-10-17T04:04:22;12.00;99.90
25985;DHT22;40000;53.848;10.658;2022-10-17T04:09:23;12.00;99.90
25985;DHT22;40000;53.848;10.658;2022-10-17T04:14:23;12.00;99.90
25985;DHT22;40000;53.848;10.658;2022-10-17T04:19:24;12.00;99.90
25985;DHT22;40000;53.848;10.658;2022-10-17T04:24:25;12.10;99.90
25985;DHT22;40000;53.848;10.658;2022-10-17T04:29:26;12.10;99.90
25985;DHT22;40000;53.848;10.658;2022-10-17T04:34:26;12.10;99.90
25985;DHT22;40000;53.848;10.658;2022-10-17T04:39:28;11.90;99.90
25985;DHT22;40000;53.848;10.658;2022-10-17T04:44:29;11.80;99.90
25985;DHT22;40000;53.848;10.658;2022-10-17T04:49:30;11.70;99.90
25985;DHT22;40000;53.848;10.658;2022-10-17T04:54:31;11.60;99.90
25985;DHT22;40000;53.848;10.658;2022-10-17T04:59:32;11.60;99.90
25985;DHT22;40000;53.848;10.658;2022-10-17T05:04:32;11.50;99.90
25985;DHT22;40000;53.848;10.658;2022-10-17T05:09:33;11.50;99.90
25985;DHT22;40000;53.848;10.658;2022-10-17T05:14:34;11.40;99.90
25985;DHT22;40000;53.848;10.658;2022-10-17T05:19:34;11.40;99.90
25985;DHT22;40000;53.848;10.658;2022-10-17T05:24:35;11.30;99.90
25985;DHT22;40000;53.848;10.658;2022-10-17T05:29:36;11.20;99.90
25985;DHT22;40000;53.848;10.658;2022-10-17T05:34:36;11.10;99.90
25985;DHT22;40000;53.848;10.658;2022-10-17T05:39:37;11.00;99.90
25985;DHT22;40000;53.848;10.658;2022-10-17T05:44:38;11.00;99.90
25985;DHT22;40000;53.848;10.658;2022-10-17T05:49:40;11.00;99.90
25985;DHT22;40000;53.848;10.658;2022-10-17T05:54:41;10.90;99.90
25985;DHT22;40000;53.848;10.658;2022-10-17T05:59:42;10.80;99.90
25985;DHT22;40000;53.848;10.658;2022-10-17T06:04:42;10.90;99.90
25985;DHT22;40000;53.848;10.658;2022-10-17T06:09:45;10.80;99.90
25985;DHT22;40000;53.848;10.658;2022-10-17T06:14:46;10.80;99.90
25985;DHT22;40000;53.848;10.658;2022-10-17T06:19:46;10.80;99.90
25985;DHT22;40000;53.848;10.658;2022-10-17T06:24:47;10.70;99.90
25985;DHT22;40000;53.848;10.658;2022-10-17T06:29:48;10.80;99.90
25985;DHT22;40000;53.848;10.658;2022-10-17T06:34:50;11.00;99.90
25985;DHT22;40000;53.848;10.658;2022-10-17T06:39:51;11.10;99.90
25985;DHT22;40000;53.848;10.658;2022-10-17T06:44:51;11.20;99.90
25985;DHT22;40000;53.848;10.658;2022-10-17T06:49:52;11.40;99.90
25985;DHT22;40000;53.848;10.658;2022-10-17T06:54:53;11.60;99.90
25985;DHT22;40000;53.848;10.658;2022-10-17T06:59:53;11.70;99.90
25985;DHT22;40000;53.848;10.658;2022-10-17T07:04:54;12.00;99.90
25985;DHT22;40000;53.848;10.658;2022-10-17T07:09:55;12.20;99.90
25985;DHT22;40000;53.848;10.658;2022-10-17T07:14:56;12.30;99.90
25985;DHT22;40000;53.848;10.658;2022-10-17T07:19:57;12.50;99.90
25985;DHT22;40000;53.848;10.658;2022-10-17T07:24:58;12.70;99.90
25985;DHT22;40000;53.848;10.658;2022-10-17T07:29:58;12.90;99.90
25985;DHT22;40000;53.848;10.658;2022-10-17T07:34:59;13.10;99.90
25985;DHT22;40000;53.848;10.658;2022-10-17T07:40:00;13.30;99.90
25985;DHT22;40000;53.848;10.658;2022-10-17T07:45:01;13.60;99.90
25985;DHT22;40000;53.848;10.658;2022-10-17T07:50:03;13.80;99.90
25985;DHT22;40000;53.848;10.658;2022-10-17T07:55:05;14.00;99.90
25985;DHT22;40000;53.848;10.658;2022-10-17T08:00:07;14.30;99.90
25985;DHT22;40000;53.848;10.658;2022-10-17T08:05:08;14.60;99.90
25985;DHT22;40000;53.848;10.658;2022-10-17T08:10:12;14.80;99.90
25985;DHT22;40000;53.848;10.658;2022-10-17T08:15:13;15.10;99.90
25985;DHT22;40000;53.848;10.658;2022-10-17T08:20:13;15.30;99.90
25985;DHT22;40000;53.848;10.658;2022-10-17T08:25:14;15.50;99.90
25985;DHT22;40000;53.848;10.658;2022-10-17T08:30:15;15.60;99.90
25985;DHT22;40000;53.848;10.658;2022-10-17T08:35:16;16.00;99.90
25985;DHT22;40000;53.848;10.658;2022-10-17T08:40:21;16.30;99.90
25985;DHT22;40000;53.848;10.658;2022-10-17T08:56:25;16.70;99.90
25985;DHT22;40000;53.848;10.658;2022-10-17T09:01:50;16.90;99.90
25985;DHT22;40000;53.848;10.658;2022-10-17T09:18:32;17.50;99.90
25985;DHT22;40000;53.848;10.658;2022-10-17T09:23:53;17.60;99.90
25985;DHT22;40000;53.848;10.658;2022-10-17T09:28:58;17.80;99.90
25985;DHT22;40000;53.848;10.658;2022-10-17T09:34:01;18.00;99.90
25985;DHT22;40000;53.848;10.658;2022-10-17T09:44:31;18.40;99.90
25985;DHT22;40000;53.848;10.658;2022-10-17T09:49:37;18.60;99.90
25985;DHT22;40000;53.848;10.658;2022-10-17T09:54:48;18.80;99.90
25985;DHT22;40000;53.848;10.658;2022-10-17T10:00:03;18.90;99.90
25985;DHT22;40000;53.848;10.658;2022-10-17T10:05:18;19.30;99.90
25985;DHT22;40000;53.848;10.658;2022-10-17T10:10:26;19.50;99.90
25985;DHT22;40000;53.848;10.658;2022-10-17T10:15:36;19.50;99.90
25985;DHT22;40000;53.848;10.658;2022-10-17T10:20:40;19.50;99.90
25985;DHT22;40000;53.848;10.658;2022-10-17T10:25:55;19.40;99.90
25985;DHT22;40000;53.848;10.658;2022-10-17T10:31:02;19.50;99.90
25985;DHT22;40000;53.848;10.658;2022-10-17T10:36:06;19.70;99.90
25985;DHT22;40000;53.848;10.658;2022-10-17T10:41:09;19.80;99.90
25985;DHT22;40000;53.848;10.658;2022-10-17T10:46:25;19.90;99.90
25985;DHT22;40000;53.848;10.658;2022-10-17T10:51:45;20.00;99.90
25985;DHT22;40000;53.848;10.658;2022-10-17T10:56:48;20.10;99.90
25985;DHT22;40000;53.848;10.658;2022-10-17T11:01:57;20.10;99.90
25985;DHT22;40000;53.848;10.658;2022-10-17T11:12:40;20.20;99.90
25985;DHT22;40000;53.848;10.658;2022-10-17T11:17:58;20.40;99.90
25985;DHT22;40000;53.848;10.658;2022-10-17T11:23:15;20.50;99.90
25985;DHT22;40000;53.848;10.658;2022-10-17T11:28:22;20.60;99.90
25985;DHT22;40000;53.848;10.658;2022-10-17T11:39:06;20.50;99.90
25985;DHT22;40000;53.848;10.658;2022-10-17T11:44:32;20.30;99.90
25985;DHT22;40000;53.848;10.658;2022-10-17T11:49:57;20.30;99.90
25985;DHT22;40000;53.848;10.658;2022-10-17T11:55:33;20.30;99.90
25985;DHT22;40000;53.848;10.658;2022-10-17T12:00:59;20.40;99.90
25985;DHT22;40000;53.848;10.658;2022-10-17T12:16:53;20.80;99.90
25985;DHT22;40000;53.848;10.658;2022-10-17T12:21:56;20.80;99.90
25985;DHT22;40000;53.848;10.658;2022-10-17T12:32:36;20.70;99.90
25985;DHT22;40000;53.848;10.658;2022-10-17T12:42:47;20.20;99.90
25985;DHT22;40000;53.848;10.658;2022-10-17T12:47:50;19.90;99.90
25985;DHT22;40000;53.848;10.658;2022-10-17T12:52:57;19.60;99.90
25985;DHT22;40000;53.848;10.658;2022-10-17T12:58:05;19.50;99.90
25985;DHT22;40000;53.848;10.658;2022-10-17T13:08:22;19.50;99.90
25985;DHT22;40000;53.848;10.658;2022-10-17T13:18:51;19.60;99.90
25985;DHT22;40000;53.848;10.658;2022-10-17T13:23:53;19.50;99.90
25985;DHT22;40000;53.848;10.658;2022-10-17T13:34:17;19.50;99.90
25985;DHT22;40000;53.848;10.658;2022-10-17T13:39:22;19.30;99.90
25985;DHT22;40000;53.848;10.658;2022-10-17T13:44:26;19.20;99.90
25985;DHT22;40000;53.848;10.658;2022-10-17T13:49:33;19.20;99.90
25985;DHT22;40000;53.848;10.658;2022-10-17T13:54:38;19.10;99.90
25985;DHT22;40000;53.848;10.658;2022-10-17T13:59:41;19.00;99.90
25985;DHT22;40000;53.848;10.658;2022-10-17T14:04:42;18.70;99.90
25985;DHT22;40000;53.848;10.658;2022-10-17T14:09:45;18.40;99.90
25985;DHT22;40000;53.848;10.658;2022-10-17T14:14:48;18.20;99.90
25985;DHT22;40000;53.848;10.658;2022-10-17T14:19:58;18.00;99.90
25985;DHT22;40000;53.848;10.658;2022-10-17T14:25:03;17.90;99.90
25985;DHT22;40000;53.848;10.658;2022-10-17T14:30:29;17.80;99.90
25985;DHT22;40000;53.848;10.658;2022-10-17T14:35:27;17.80;99.90
25985;DHT22;40000;53.848;10.658;2022-10-17T14:40:29;17.70;99.90
25985;DHT22;40000;53.848;10.658;2022-10-17T14:45:37;17.60;99.90
25985;DHT22;40000;53.848;10.658;2022-10-17T14:50:38;17.60;99.90
25985;DHT22;40000;53.848;10.658;2022-10-17T14:55:52;17.50;99.90
25985;DHT22;40000;53.848;10.658;2022-10-17T15:01:00;17.50;99.90
25985;DHT22;40000;53.848;10.658;2022-10-17T15:11:23;17.50;99.90
25985;DHT22;40000;53.848;10.658;2022-10-17T15:16:26;17.50;99.90
25985;DHT22;40000;53.848;10.658;2022-10-17T15:21:30;17.40;99.90
25985;DHT22;40000;53.848;10.658;2022-10-17T15:26:33;17.40;99.90
25985;DHT22;40000;53.848;10.658;2022-10-17T15:31:33;17.30;99.90
25985;DHT22;40000;53.848;10.658;2022-10-17T15:36:39;17.30;99.90
25985;DHT22;40000;53.848;10.658;2022-10-17T15:41:40;17.30;99.90
25985;DHT22;40000;53.848;10.658;2022-10-17T15:46:41;17.20;99.90
25985;DHT22;40000;53.848;10.658;2022-10-17T15:51:43;17.30;99.90
25985;DHT22;40000;53.848;10.658;2022-10-17T15:56:48;17.20;99.90
25985;DHT22;40000;53.848;10.658;2022-10-17T16:01:53;17.20;99.90
25985;DHT22;40000;53.848;10.658;2022-10-17T16:06:53;17.10;99.90
25985;DHT22;40000;53.848;10.658;2022-10-17T16:11:54;17.10;99.90
25985;DHT22;40000;53.848;10.658;2022-10-17T16:16:55;17.10;99.90
25985;DHT22;40000;53.848;10.658;2022-10-17T16:21:56;17.10;99.90
25985;DHT22;40000;53.848;10.658;2022-10-17T16:26:57;17.10;99.90
25985;DHT22;40000;53.848;10.658;2022-10-17T16:31:58;17.10;99.90
25985;DHT22;40000;53.848;10.658;2022-10-17T16:36:58;17.10;99.90
25985;DHT22;40000;53.848;10.658;2022-10-17T16:41:59;17.00;99.90
25985;DHT22;40000;53.848;10.658;2022-10-17T16:47:00;17.00;99.90
25985;DHT22;40000;53.848;10.658;2022-10-17T16:52:00;16.90;99.90
25985;DHT22;40000;53.848;10.658;2022-10-17T16:57:02;16.90;99.90
25985;DHT22;40000;53.848;10.658;2022-10-17T17:02:03;16.90;99.90
25985;DHT22;40000;53.848;10.658;2022-10-17T17:07:04;16.80;99.90
25985;DHT22;40000;53.848;10.658;2022-10-17T17:12:05;16.80;99.90
25985;DHT22;40000;53.848;10.658;2022-10-17T17:17:06;16.80;99.90
25985;DHT22;40000;53.848;10.658;2022-10-17T17:22:06;16.80;99.90
25985;DHT22;40000;53.848;10.658;2022-10-17T17:27:07;16.70;99.90
25985;DHT22;40000;53.848;10.658;2022-10-17T17:32:08;16.70;99.90
25985;DHT22;40000;53.848;10.658;2022-10-17T17:37:08;16.60;99.90
25985;DHT22;40000;53.848;10.658;2022-10-17T17:42:09;16.60;99.90
25985;DHT22;40000;53.848;10.658;2022-10-17T17:47:10;16.60;99.90
25985;DHT22;40000;53.848;10.658;2022-10-17T17:52:10;16.60;99.90
25985;DHT22;40000;53.848;10.658;2022-10-17T17:57:11;16.50;99.90
25985;DHT22;40000;53.848;10.658;2022-10-17T18:02:12;16.50;99.90
25985;DHT22;40000;53.848;10.658;2022-10-17T18:07:12;16.50;99.90
25985;DHT22;40000;53.848;10.658;2022-10-17T18:12:13;16.50;99.90
25985;DHT22;40000;53.848;10.658;2022-10-17T18:17:14;16.50;99.90
25985;DHT22;40000;53.848;10.658;2022-10-17T18:22:14;16.50;99.90
25985;DHT22;40000;53.848;10.658;2022-10-17T18:27:15;16.50;99.90
25985;DHT22;40000;53.848;10.658;2022-10-17T18:32:16;16.60;99.90
25985;DHT22;40000;53.848;10.658;2022-10-17T18:37:17;16.50;99.90
25985;DHT22;40000;53.848;10.658;2022-10-17T18:42:17;16.60;99.90
25985;DHT22;40000;53.848;10.658;2022-10-17T18:47:18;16.50;99.90
25985;DHT22;40000;53.848;10.658;2022-10-17T18:52:19;16.50;99.90
25985;DHT22;40000;53.848;10.658;2022-10-17T18:57:20;16.50;99.90
25985;DHT22;40000;53.848;10.658;2022-10-17T19:02:20;16.50;99.90
25985;DHT22;40000;53.848;10.658;2022-10-17T19:07:21;16.40;99.90
25985;DHT22;40000;53.848;10.658;2022-10-17T19:12:22;16.40;99.90
25985;DHT22;40000;53.848;10.658;2022-10-17T19:17:22;16.40;99.90
25985;DHT22;40000;53.848;10.658;2022-10-17T19:22:23;16.50;99.90
25985;DHT22;40000;53.848;10.658;2022-10-17T19:27:24;16.30;99.90
25985;DHT22;40000;53.848;10.658;2022-10-17T19:32:24;16.40;99.90
25985;DHT22;40000;53.848;10.658;2022-10-17T19:37:25;16.40;99.90
25985;DHT22;40000;53.848;10.658;2022-10-17T19:42:26;16.30;99.90
25985;DHT22;40000;53.848;10.658;2022-10-17T19:47:27;16.30;99.90
25985;DHT22;40000;53.848;10.658;2022-10-17T19:52:27;16.30;99.90
25985;DHT22;40000;53.848;10.658;2022-10-17T19:57:28;16.20;99.90
25985;DHT22;40000;53.848;10.658;2022-10-17T20:02:29;16.20;99.90
25985;DHT22;40000;53.848;10.658;2022-10-17T20:07:29;16.20;99.90
25985;DHT22;40000;53.848;10.658;2022-10-17T20:12:30;16.10;99.90
25985;DHT22;40000;53.848;10.658;2022-10-17T20:17:31;16.10;99.90
25985;DHT22;40000;53.848;10.658;2022-10-17T20:22:31;16.00;99.90
25985;DHT22;40000;53.848;10.658;2022-10-17T20:27:32;15.90;99.90
25985;DHT22;40000;53.848;10.658;2022-10-17T20:32:33;15.90;99.90
25985;DHT22;40000;53.848;10.658;2022-10-17T20:37:37;15.80;99.90
25985;DHT22;40000;53.848;10.658;2022-10-17T20:42:38;15.70;99.90
25985;DHT22;40000;53.848;10.658;2022-10-17T20:47:39;15.60;99.90
25985;DHT22;40000;53.848;10.658;2022-10-17T20:52:39;15.40;99.90
25985;DHT22;40000;53.848;10.658;2022-10-17T20:57:40;15.30;99.90
25985;DHT22;40000;53.848;10.658;2022-10-17T21:02:41;15.20;99.90
25985;DHT22;40000;53.848;10.658;2022-10-17T21:07:42;15.20;99.90
25985;DHT22;40000;53.848;10.658;2022-10-17T21:12:42;15.20;99.90
25985;DHT22;40000;53.848;10.658;2022-10-17T21:17:43;15.00;99.90
25985;DHT22;40000;53.848;10.658;2022-10-17T21:22:44;14.90;99.90
25985;DHT22;40000;53.848;10.658;2022-10-17T21:27:44;14.80;99.90
25985;DHT22;40000;53.848;10.658;2022-10-17T21:32:45;14.80;99.90
25985;DHT22;40000;53.848;10.658;2022-10-17T21:37:46;14.80;99.90
25985;DHT22;40000;53.848;10.658;2022-10-17T21:42:47;14.70;99.90
25985;DHT22;40000;53.848;10.658;2022-10-17T21:47:47;14.60;99.90
25985;DHT22;40000;53.848;10.658;2022-10-17T21:52:48;14.50;99.90
25985;DHT22;40000;53.848;10.658;2022-10-17T21:57:50;14.40;99.90
25985;DHT22;40000;53.848;10.658;2022-10-17T22:02:51;14.40;99.90
25985;DHT22;40000;53.848;10.658;2022-10-17T22:07:51;14.40;99.90
25985;DHT22;40000;53.848;10.658;2022-10-17T22:12:52;14.30;99.90
25985;DHT22;40000;53.848;10.658;2022-10-17T22:17:52;14.30;99.90
25985;DHT22;40000;53.848;10.658;2022-10-17T22:22:53;14.20;99.90
25985;DHT22;40000;53.848;10.658;2022-10-17T22:27:54;14.20;99.90
25985;DHT22;40000;53.848;10.658;2022-10-17T22:32:54;14.10;99.90
25985;DHT22;40000;53.848;10.658;2022-10-17T22:37:55;14.00;99.90
25985;DHT22;40000;53.848;10.658;2022-10-17T22:42:56;14.00;99.90
25985;DHT22;40000;53.848;10.658;2022-10-17T22:47:56;14.00;99.90
25985;DHT22;40000;53.848;10.658;2022-10-17T22:52:57;14.10;99.90
25985;DHT22;40000;53.848;10.658;2022-10-17T22:57:58;14.10;99.90
25985;DHT22;40000;53.848;10.658;2022-10-17T23:02:58;14.10;99.90
25985;DHT22;40000;53.848;10.658;2022-10-17T23:07:59;14.10;99.90
25985;DHT22;40000;53.848;10.658;2022-10-17T23:13:00;14.10;99.90
25985;DHT22;40000;53.848;10.658;2022-10-17T23:18:01;14.00;99.90
25985;DHT22;40000;53.848;10.658;2022-10-17T23:23:03;13.90;99.90
25985;DHT22;40000;53.848;10.658;2022-10-17T23:28:04;13.90;99.90
25985;DHT22;40000;53.848;10.658;2022-10-17T23:33:08;13.90;99.90
25985;DHT22;40000;53.848;10.658;2022-10-17T23:38:10;13.90;99.90
25985;DHT22;40000;53.848;10.658;2022-10-17T23:43:10;13.80;99.90
25985;DHT22;40000;53.848;10.658;2022-10-17T23:48:11;13.70;99.90
25985;DHT22;40000;53.848;10.658;2022-10-17T23:53:12;13.70;99.90
25985;DHT22;40000;53.848;10.658;2022-10-17T23:58:13;13.80;99.90
